Bialystok, Poland
Current Conditions -  °F | °C
As of 3:30 PM on Monday 24 Nov 2014 (Local Time) from UMMG Reporting Station
Haze Haze  
Wind Chill: 20°   Ceiling: 1000
Heat Index: 28°   Visibility: 2.1mi
Dew Point: 25°   Wind: 9mph
Humidity: 86%   Direction: 150°SSE
Pressure: 30.42"   Gusts: NA
Location:  53.14°N, 23.16°E
Report Text: UMMG 241330Z 15004MPS 3500 BR BKN010 M02/M04 Q1030 R17/493030NOSIG
Loading
Personal Weather Stations






























Interactive Weather Map New forecast layout! Learn more

10-Day Weather Forecast

Advertisements
Track Severe Weather on mobile